Time;durP1;ratioP1;P1;durP2;ratioP2;P2;SDS_P1;SDS_P2;PMS_P1;PMS_P2;Temp;Humidity;BMP_temperature;BMP_pressure;BME280_temperature;BME280_humidity;BME280_pressure;Samples;Min_cycle;Max_cycle;Signal;HPM_P1;HPM_P2
2023/08/13 00:02:31;;;;;;;5.13;2.50;;;;;;;22.89;74.96;98543.34;5073228;28;20039;-79
2023/08/13 00:05:15;;;;;;;3.95;2.05;;;;;;;22.79;75.02;98549.63;5086245;28;20066;-80
2023/08/13 00:07:59;;;;;;;3.92;2.22;;;;;;;22.71;74.70;98552.16;5077695;28;20101;-79
2023/08/13 00:10:43;;;;;;;3.83;2.70;;;;;;;22.61;75.04;98547.72;5083045;28;20558;-79
2023/08/13 00:13:27;;;;;;;6.70;2.50;;;;;;;22.51;75.29;98556.66;5082706;28;20517;-79
2023/08/13 00:16:11;;;;;;;6.05;2.50;;;;;;;21.87;76.64;98548.75;5080776;28;20114;-79
2023/08/13 00:18:55;;;;;;;4.90;2.42;;;;;;;22.05;76.86;98542.69;5075811;28;20046;-79
2023/08/13 00:21:39;;;;;;;3.75;2.30;;;;;;;22.14;76.22;98545.53;5084824;28;20046;-79
2023/08/13 00:24:23;;;;;;;5.05;2.30;;;;;;;21.94;76.87;98546.53;5082105;28;20579;-79
2023/08/13 00:27:07;;;;;;;4.60;2.55;;;;;;;22.14;76.40;98542.06;5082951;28;20505;-77
2023/08/13 00:29:51;;;;;;;5.82;2.50;;;;;;;22.07;76.47;98537.84;5080023;28;20043;-78
2023/08/13 00:32:35;;;;;;;5.97;2.67;;;;;;;21.89;77.04;98549.25;5077926;28;20051;-77
2023/08/13 00:35:19;;;;;;;4.43;2.40;;;;;;;21.81;77.32;98548.00;5085639;28;20485;-78
2023/08/13 00:38:03;;;;;;;6.05;2.83;;;;;;;21.78;77.71;98538.66;5079766;28;20562;-75
2023/08/13 00:40:47;;;;;;;3.63;2.53;;;;;;;21.54;78.52;98544.69;5077336;28;20035;-76
2023/08/13 00:43:31;;;;;;;4.90;2.70;;;;;;;21.50;78.69;98541.00;5084756;28;20047;-75
2023/08/13 00:46:15;;;;;;;5.30;2.92;;;;;;;22.04;77.36;98548.31;5080256;28;20093;-75
2023/08/13 00:49:01;;;;;;;3.92;2.60;;;;;;;21.76;77.73;98538.13;5076970;28;20572;-76
2023/08/13 00:51:45;;;;;;;4.35;2.90;;;;;;;21.75;78.41;98541.88;5070527;28;20043;-76
2023/08/13 00:54:30;;;;;;;4.68;2.92;;;;;;;21.53;79.22;98540.44;5084339;28;20054;-76
2023/08/13 00:57:14;;;;;;;5.65;3.30;;;;;;;21.46;79.50;98542.63;5078067;28;20043;-76
2023/08/13 00:59:59;;;;;;;4.57;2.60;;;;;;;21.54;79.00;98539.34;5074500;28;20071;-76
2023/08/13 01:02:43;;;;;;;4.82;2.83;;;;;;;21.43;79.41;98540.53;5076076;28;20077;-75
2023/08/13 01:05:53;;;;;;;5.05;2.75;;;;;;;21.34;80.09;98550.19;5079025;28;20489;-75
2023/08/13 01:09:03;;;;;;;7.13;2.92;;;;;;;21.53;80.21;98556.47;5078318;28;20085;-75
2023/08/13 01:12:06;;;;;;;4.97;2.45;;;;;;;21.75;79.32;98549.91;5078101;28;20544;-76
2023/08/13 01:15:05;;;;;;;8.35;2.95;;;;;;;21.32;80.45;98547.00;5083206;28;20090;-75
2023/08/13 01:17:51;;;;;;;10.32;3.03;;;;;;;21.15;81.44;98547.41;5077861;28;20077;-75
2023/08/13 01:20:41;;;;;;;8.32;3.00;;;;;;;21.43;80.77;98548.53;5077655;28;20051;-77
2023/08/13 01:23:26;;;;;;;11.35;3.50;;;;;;;21.01;81.95;98549.84;5075264;28;20040;-75
2023/08/13 01:26:24;;;;;;;7.82;3.33;;;;;;;21.11;81.62;98552.47;5074337;28;20478;-76
2023/08/13 01:29:17;;;;;;;5.82;2.90;;;;;;;20.89;82.05;98551.00;5073730;28;20121;-76
2023/08/13 01:32:02;;;;;;;6.38;2.97;;;;;;;20.96;82.31;98537.38;5074262;28;20044;-76
2023/08/13 01:34:49;;;;;;;7.70;3.00;;;;;;;20.86;82.58;98535.56;5078365;28;20447;-76
2023/08/13 01:37:34;;;;;;;8.98;2.78;;;;;;;20.84;82.92;98540.38;5078456;28;20047;-76
2023/08/13 01:40:19;;;;;;;9.18;2.75;;;;;;;20.73;82.91;98539.56;5083310;28;20089;-75
2023/08/13 01:43:03;;;;;;;8.18;3.20;;;;;;;20.74;83.39;98529.69;5076415;28;20055;-76
2023/08/13 01:45:47;;;;;;;8.20;3.03;;;;;;;20.75;83.74;98533.97;5077103;28;20030;-76
2023/08/13 01:48:31;;;;;;;8.40;3.00;;;;;;;20.69;83.98;98542.00;5079961;28;20063;-76
2023/08/13 01:51:15;;;;;;;8.70;3.03;;;;;;;20.85;83.78;98541.97;5078327;28;20043;-75
2023/08/13 01:53:59;;;;;;;9.00;3.05;;;;;;;20.69;83.90;98542.00;5087378;28;20047;-75
2023/08/13 01:56:43;;;;;;;7.32;2.55;;;;;;;20.73;83.89;98538.78;5083105;28;20588;-76
2023/08/13 01:59:27;;;;;;;15.13;2.88;;;;;;;20.64;84.05;98534.03;5077781;28;20535;-75
2023/08/13 02:02:11;;;;;;;7.82;2.80;;;;;;;20.93;82.72;98536.03;5085090;28;20505;-75
2023/08/13 02:04:55;;;;;;;4.93;2.42;;;;;;;20.95;82.72;98539.22;5084563;28;20512;-76
2023/08/13 02:07:38;;;;;;;6.85;2.92;;;;;;;20.96;82.99;98542.69;5082754;28;20039;-75
2023/08/13 02:10:23;;;;;;;6.85;3.38;;;;;;;20.99;82.92;98544.81;5081220;28;20048;-75
2023/08/13 02:13:06;;;;;;;6.70;2.90;;;;;;;20.73;83.76;98544.09;5086055;28;20551;-75
2023/08/13 02:15:50;;;;;;;8.77;3.15;;;;;;;21.04;82.57;98542.09;5083376;28;20485;-75
2023/08/13 02:18:34;;;;;;;7.28;2.88;;;;;;;21.08;82.35;98539.69;5085315;28;20050;-76
2023/08/13 02:21:19;;;;;;;5.47;2.60;;;;;;;20.99;82.93;98544.81;5078332;28;20540;-75
2023/08/13 02:24:04;;;;;;;10.20;3.15;;;;;;;21.07;82.87;98538.88;5080486;28;20389;-76
2023/08/13 02:26:48;;;;;;;8.57;3.10;;;;;;;21.20;82.50;98544.69;5082092;28;20186;-76
2023/08/13 02:29:32;;;;;;;;;;;;;;;21.15;82.59;98542.84;5083397;28;20063;-76
2023/08/13 02:32:16;;;;;;;8.55;2.40;;;;;;;21.16;82.49;98543.66;5081352;28;19966;-77
2023/08/13 02:35:00;;;;;;;8.05;3.22;;;;;;;21.08;82.57;98542.38;5076993;28;20525;-76
2023/08/13 02:37:44;;;;;;;6.55;2.63;;;;;;;21.07;82.91;98538.09;5075457;28;20493;-76
2023/08/13 02:40:27;;;;;;;10.93;2.97;;;;;;;21.35;82.29;98536.59;5084774;28;20589;-76
2023/08/13 02:43:12;;;;;;;11.20;2.47;;;;;;;21.46;81.68;98531.97;5082606;28;20042;-76
2023/08/13 02:45:55;;;;;;;11.43;2.83;;;;;;;21.53;80.23;98527.09;5080041;28;20131;-76
2023/08/13 02:48:39;;;;;;;5.00;2.72;;;;;;;21.58;80.08;98536.94;5085763;28;20039;-77
2023/08/13 02:51:24;;;;;;;7.00;2.90;;;;;;;21.44;80.45;98527.97;5082348;28;20089;-76
2023/08/13 02:54:08;;;;;;;6.07;2.85;;;;;;;21.21;81.03;98536.38;5085537;28;20104;-76
2023/08/13 02:56:51;;;;;;;5.78;2.80;;;;;;;21.22;81.11;98532.66;5080782;28;20094;-76
2023/08/13 02:59:35;;;;;;;10.05;3.13;;;;;;;21.04;81.77;98530.66;5076670;28;20093;-77
2023/08/13 03:02:19;;;;;;;6.35;2.63;;;;;;;20.93;82.19;98535.22;5081472;28;20505;-76
2023/08/13 03:05:03;;;;;;;11.00;3.53;;;;;;;20.90;83.01;98531.25;5080517;28;20117;-76
2023/08/13 03:07:48;;;;;;;7.85;2.85;;;;;;;21.18;81.98;98530.81;5083282;28;20113;-76
2023/08/13 03:10:32;;;;;;;8.00;3.28;;;;;;;20.81;83.18;98527.56;5081190;28;20395;-75
2023/08/13 03:13:16;;;;;;;8.63;3.28;;;;;;;20.72;84.06;98521.19;5086408;28;20082;-76
2023/08/13 03:16:00;;;;;;;9.70;3.67;;;;;;;20.86;83.73;98538.22;5083698;28;20047;-76
2023/08/13 03:18:45;;;;;;;10.63;3.25;;;;;;;20.84;83.90;98537.69;5080474;28;20039;-76
2023/08/13 03:21:29;;;;;;;5.78;3.08;;;;;;;21.03;83.07;98523.69;5081772;28;20481;-81
2023/08/13 03:24:13;;;;;;;8.68;3.00;;;;;;;21.16;83.02;98527.63;5083915;28;20071;-81
2023/08/13 03:26:57;;;;;;;9.75;3.08;;;;;;;21.23;82.27;98528.94;5078824;28;20047;-82
2023/08/13 03:29:41;;;;;;;9.32;3.50;;;;;;;21.15;82.69;98526.81;5080083;28;20086;-82
2023/08/13 03:32:25;;;;;;;7.07;3.13;;;;;;;21.17;82.74;98531.91;5081581;28;20070;-81
2023/08/13 03:35:09;;;;;;;9.68;3.47;;;;;;;21.22;82.46;98540.69;5084503;28;20137;-82
2023/08/13 03:37:53;;;;;;;13.32;3.70;;;;;;;21.15;82.97;98542.84;5080332;28;20542;-82
2023/08/13 03:40:38;;;;;;;11.50;3.65;;;;;;;21.30;82.61;98541.94;5072001;28;20047;-82
2023/08/13 03:43:22;;;;;;;10.93;3.58;;;;;;;21.30;82.56;98533.94;5082220;28;20544;-82
2023/08/13 03:46:06;;;;;;;7.53;3.25;;;;;;;21.50;81.91;98533.00;5079124;28;20063;-81
2023/08/13 03:48:50;;;;;;;10.20;3.72;;;;;;;21.34;81.66;98540.31;5081547;28;20553;-81
2023/08/13 03:51:34;;;;;;;6.82;3.50;;;;;;;21.33;81.95;98524.56;5082832;28;20034;-81
2023/08/13 03:54:18;;;;;;;9.65;3.22;;;;;;;21.33;82.01;98527.25;5077103;28;20126;-81
2023/08/13 03:57:02;;;;;;;6.85;3.35;;;;;;;21.36;81.05;98521.34;5080396;28;20421;-81
2023/08/13 03:59:46;;;;;;;9.07;3.50;;;;;;;21.40;81.68;98533.06;5083579;28;20046;-81
2023/08/13 04:02:32;;;;;;;;;;;;;;;21.50;80.84;98530.31;5076437;28;20046;-81
2023/08/13 04:05:16;;;;;;;6.70;3.10;;;;;;;21.46;80.78;98529.28;5084159;28;19963;-82
2023/08/13 04:08:00;;;;;;;9.35;3.45;;;;;;;21.54;80.86;98528.69;5076262;28;20059;-81
2023/08/13 04:10:44;;;;;;;11.15;3.50;;;;;;;21.57;81.20;98518.50;5077254;28;20056;-80
2023/08/13 04:13:28;;;;;;;7.07;3.10;;;;;;;21.40;81.43;98522.38;5076450;28;20042;-81
2023/08/13 04:16:12;;;;;;;6.18;3.42;;;;;;;21.47;81.34;98522.88;5074915;28;20071;-80
2023/08/13 04:18:56;;;;;;;10.32;3.97;;;;;;;21.51;81.02;98526.56;5085362;28;20067;-81
2023/08/13 04:21:40;;;;;;;9.82;3.30;;;;;;;;;;5077265;28;20032;-81
2023/08/13 04:24:24;;;;;;;10.38;3.38;;;;;;;21.45;81.08;98518.88;5081355;28;20040;-81
2023/08/13 04:27:08;;;;;;;8.60;3.35;;;;;;;21.75;80.10;98519.75;5076179;28;20034;-82
2023/08/13 04:29:52;;;;;;;8.40;3.30;;;;;;;21.73;80.41;98521.91;5072067;28;20071;-82
2023/08/13 04:32:37;;;;;;;8.35;3.10;;;;;;;21.75;80.17;98519.75;5083503;28;20070;-81
2023/08/13 04:35:22;;;;;;;10.95;3.25;;;;;;;21.78;80.23;98519.94;5080065;28;20394;-82
2023/08/13 04:38:06;;;;;;;8.68;3.17;;;;;;;22.07;78.50;98499.63;5083131;28;20447;-82
2023/08/13 04:40:51;;;;;;;6.05;3.10;;;;;;;21.95;78.91;98508.03;5078891;28;20089;-80
2023/08/13 04:43:34;;;;;;;9.00;2.90;;;;;;;22.05;78.70;98510.63;5080265;28;20042;-81
2023/08/13 04:46:18;;;;;;;4.63;3.00;;;;;;;22.30;78.15;98511.41;5075164;28;20043;-82
2023/08/13 04:49:02;;;;;;;6.18;2.92;;;;;;;22.21;77.83;98505.13;5079810;28;20132;-81
2023/08/13 04:51:47;;;;;;;9.93;3.22;;;;;;;22.04;78.72;98508.22;5078774;28;20040;-82
2023/08/13 04:54:31;;;;;;;10.98;2.72;;;;;;;21.94;78.71;98501.91;5078057;28;20126;-82
2023/08/13 04:57:15;;;;;;;6.78;2.78;;;;;;;21.95;79.17;98516.06;5079237;28;20103;-81
2023/08/13 04:59:59;;;;;;;6.90;3.10;;;;;;;22.11;78.86;98514.03;5079513;28;20527;-81
2023/08/13 05:02:44;;;;;;;6.65;2.80;;;;;;;21.59;79.85;98503.00;5076549;28;20047;-82
2023/08/13 05:05:28;;;;;;;5.57;2.85;;;;;;;21.58;80.04;98512.09;5078429;28;20505;-82
2023/08/13 05:08:12;;;;;;;7.80;3.03;;;;;;;21.61;80.15;98506.19;5074115;28;20051;-80
2023/08/13 05:10:56;;;;;;;5.18;2.78;;;;;;;21.53;80.45;98495.03;5080709;28;20390;-81
2023/08/13 05:13:40;;;;;;;7.45;3.22;;;;;;;21.55;80.62;98497.44;5076010;28;20043;-80
2023/08/13 05:16:24;;;;;;;5.55;2.92;;;;;;;21.83;79.96;98487.88;5082314;28;20097;-75
2023/08/13 05:19:08;;;;;;;8.10;3.13;;;;;;;21.79;80.17;98480.69;5077925;28;20044;-75
2023/08/13 05:21:52;;;;;;;6.03;2.88;;;;;;;22.02;79.75;98489.00;5077063;28;20097;-76
2023/08/13 05:24:36;;;;;;;7.32;3.38;;;;;;;21.56;80.65;98488.34;5072072;28;20086;-76
2023/08/13 05:27:20;;;;;;;9.40;2.90;;;;;;;21.71;80.77;98487.44;5079794;28;20166;-75
2023/08/13 05:30:05;;;;;;;6.05;3.20;;;;;;;22.06;79.68;98484.69;5077898;28;20059;-75
2023/08/13 05:32:50;;;;;;;8.98;3.33;;;;;;;21.54;81.35;98479.84;5079742;28;20100;-76
2023/08/13 05:35:34;;;;;;;8.15;3.28;;;;;;;21.68;81.17;98490.69;5078091;28;20042;-75
2023/08/13 05:38:18;;;;;;;9.43;3.75;;;;;;;21.79;80.99;98489.50;5076885;28;20105;-75
2023/08/13 05:41:02;;;;;;;9.73;3.83;;;;;;;21.98;80.95;98494.13;5076955;28;20520;-76
2023/08/13 05:43:46;;;;;;;8.00;3.30;;;;;;;21.66;81.52;98487.50;5077759;28;20395;-76
2023/08/13 05:46:30;;;;;;;10.70;3.50;;;;;;;21.67;81.20;98505.91;5079380;28;20047;-76
2023/08/13 05:49:14;;;;;;;9.32;3.45;;;;;;;21.86;81.11;98505.19;5078204;28;20092;-75
2023/08/13 05:51:58;;;;;;;6.63;3.20;;;;;;;21.73;81.13;98512.00;5074515;28;20094;-76
2023/08/13 05:54:42;;;;;;;10.00;3.88;;;;;;;21.93;80.57;98512.88;5073015;28;20109;-76
2023/08/13 05:57:26;;;;;;;15.88;4.10;;;;;;;21.82;81.32;98512.19;5074332;28;20035;-76
2023/08/13 06:00:14;;;;;;;8.93;3.78;;;;;;;22.28;80.14;98512.75;5074714;28;20043;-75
2023/08/13 06:02:58;;;;;;;9.98;3.50;;;;;;;22.28;79.86;98513.56;5072795;28;20524;-76
2023/08/13 06:05:42;;;;;;;10.45;3.45;;;;;;;22.30;78.90;98511.41;5075393;28;20055;-77
2023/08/13 06:08:26;;;;;;;9.23;3.47;;;;;;;22.44;78.63;98513.41;5076703;28;20505;-76
2023/08/13 06:11:10;;;;;;;7.97;3.75;;;;;;;22.63;78.94;98511.59;5075593;28;20134;-77
2023/08/13 06:13:54;;;;;;;8.63;3.30;;;;;;;23.06;77.86;98523.31;5077830;28;20093;-76
2023/08/13 06:16:38;;;;;;;9.48;3.30;;;;;;;23.26;77.40;98519.56;5070148;28;20055;-74
2023/08/13 06:19:22;;;;;;;6.70;3.10;;;;;;;23.15;77.15;98529.59;5076762;28;20151;-77
2023/08/13 06:22:06;;;;;;;8.70;2.97;;;;;;;23.04;77.24;98520.13;5075116;28;20048;-77
2023/08/13 06:24:50;;;;;;;7.60;3.00;;;;;;;23.25;76.96;98534.84;5070752;28;20153;-77
2023/08/13 06:27:34;;;;;;;6.68;3.22;;;;;;;23.53;76.40;98524.22;5076119;28;20121;-77
2023/08/13 06:30:18;;;;;;;5.65;2.95;;;;;;;23.72;75.02;98519.91;5075130;28;20048;-76
2023/08/13 06:33:03;;;;;;;9.70;3.58;;;;;;;23.71;75.26;98521.78;5078499;28;20087;-77
2023/08/13 06:35:47;;;;;;;12.23;3.22;;;;;;;24.18;74.37;98523.66;5076254;28;20094;-74
2023/08/13 06:38:32;;;;;;;8.23;3.33;;;;;;;23.78;75.03;98519.53;5082423;28;20939;-77
2023/08/13 06:41:16;;;;;;;6.13;3.22;;;;;;;24.23;74.61;98516.28;5077180;28;20158;-77
2023/08/13 06:44:01;;;;;;;11.18;3.13;;;;;;;24.22;74.31;98516.63;5077057;28;20505;-75
2023/08/13 06:46:46;;;;;;;4.68;2.72;;;;;;;24.40;74.32;98517.59;5078951;28;20055;-85
2023/08/13 06:49:30;;;;;;;5.07;2.70;;;;;;;24.52;73.62;98525.13;5080133;28;20444;-86
2023/08/13 06:52:14;;;;;;;5.63;2.97;;;;;;;24.84;73.34;98528.78;5080502;28;20104;-84
2023/08/13 06:54:58;;;;;;;3.40;2.40;;;;;;;25.00;71.64;98517.72;5082424;28;20043;-84
2023/08/13 06:57:42;;;;;;;6.70;2.67;;;;;;;25.73;69.95;98527.56;5079938;28;20089;-84
2023/08/13 07:00:27;;;;;;;5.63;2.72;;;;;;;25.37;70.62;98526.53;5079538;28;20081;-84
2023/08/13 07:03:13;;;;;;;5.88;2.63;;;;;;;25.51;69.73;98526.47;5079255;28;20071;-80
2023/08/13 07:05:58;;;;;;;7.75;2.92;;;;;;;25.44;69.58;98526.06;5076797;28;20047;-83
2023/08/13 07:08:42;;;;;;;4.72;2.50;;;;;;;25.71;68.36;98524.38;5078274;28;20093;-81
2023/08/13 07:11:27;;;;;;;7.68;2.85;;;;;;;26.20;67.97;98532.53;5083632;28;20043;-82
2023/08/13 07:14:11;;;;;;;7.63;2.47;;;;;;;25.84;68.55;98538.84;5076665;28;20039;-83
2023/08/13 07:16:55;;;;;;;7.13;2.50;;;;;;;25.85;68.64;98538.53;5076780;28;20077;-82
2023/08/13 07:19:39;;;;;;;6.60;2.47;;;;;;;25.86;68.62;98542.00;5079949;28;20121;-86
2023/08/13 07:22:23;;;;;;;8.25;2.88;;;;;;;26.23;66.86;98543.44;5082939;28;20097;-86
2023/08/13 07:25:08;;;;;;;7.78;2.72;;;;;;;25.64;67.71;98539.03;5080978;28;20098;-85
2023/08/13 07:27:53;;;;;;;6.03;2.63;;;;;;;25.77;68.53;98541.97;5081363;28;20046;-85
2023/08/13 07:30:38;;;;;;;5.05;2.10;;;;;;;25.76;68.64;98543.88;5078420;28;20402;-86
2023/08/13 07:33:22;;;;;;;7.75;2.58;;;;;;;26.18;67.92;98546.28;5083119;28;20046;-84
2023/08/13 07:36:06;;;;;;;5.47;2.40;;;;;;;26.45;66.75;98541.81;5086022;28;20085;-85
2023/08/13 07:38:50;;;;;;;5.82;2.40;;;;;;;26.19;67.11;98544.41;5087391;28;20097;-85
2023/08/13 07:41:34;;;;;;;7.13;2.40;;;;;;;26.08;66.47;98543.84;5081677;28;20147;-84
2023/08/13 07:44:18;;;;;;;5.63;2.58;;;;;;;26.01;66.61;98533.53;5084586;28;20604;-86
2023/08/13 07:47:02;;;;;;;5.95;2.33;;;;;;;25.69;67.64;98538.13;5076088;28;20051;-86
2023/08/13 07:49:47;;;;;;;6.03;2.30;;;;;;;26.20;66.35;98535.22;5082151;28;20043;-88
2023/08/13 07:52:34;;;;;;;5.40;2.22;;;;;;;26.82;65.37;98536.16;5079494;28;20398;-87
2023/08/13 07:55:17;;;;;;;4.30;2.00;;;;;;;26.43;64.73;98529.75;5092209;28;20089;-88
2023/08/13 07:58:02;;;;;;;5.97;2.40;;;;;;;26.17;65.16;98530.47;5082331;28;20047;-86
2023/08/13 08:00:46;;;;;;;6.07;2.47;;;;;;;26.37;65.83;98529.91;5077882;28;20563;-87
2023/08/13 08:03:31;;;;;;;4.88;2.17;;;;;;;26.35;65.50;98540.19;5082022;28;20473;-88
2023/08/13 08:06:15;;;;;;;4.60;2.38;;;;;;;26.47;65.37;98544.97;5082365;28;20047;-88
2023/08/13 08:08:59;;;;;;;8.20;2.25;;;;;;;26.54;64.99;98539.13;5082777;28;20109;-88
2023/08/13 08:11:43;;;;;;;7.43;2.95;;;;;;;26.82;64.76;98528.09;5081980;28;20552;-90
2023/08/13 08:14:27;;;;;;;5.93;2.67;;;;;;;26.76;64.26;98534.72;5085780;28;20098;-85
2023/08/13 08:17:12;;;;;;;5.03;2.40;;;;;;;26.88;63.95;98534.13;5079125;28;20040;-86
2023/08/13 08:19:56;;;;;;;5.20;1.95;;;;;;;26.97;64.02;98540.31;5081527;28;20047;-88
2023/08/13 08:22:40;;;;;;;6.65;1.90;;;;;;;26.85;63.50;98540.13;5079103;28;20044;-86
2023/08/13 08:25:25;;;;;;;4.13;1.98;;;;;;;26.54;63.95;98544.50;5074171;28;20090;-86
2023/08/13 08:28:11;;;;;;;5.15;2.20;;;;;;;27.10;62.42;98527.78;5083913;28;20444;-86
2023/08/13 08:30:54;;;;;;;6.38;2.20;;;;;;;27.11;64.37;98533.97;5081769;28;20039;-88
2023/08/13 08:33:38;;;;;;;5.60;2.85;;;;;;;27.37;62.75;98542.06;5079268;28;20509;-87
2023/08/13 08:36:22;;;;;;;7.35;2.63;;;;;;;27.55;61.83;98523.19;5077093;28;20098;-85
2023/08/13 08:39:07;;;;;;;3.17;2.22;;;;;;;27.82;61.04;98537.38;5083516;28;20158;-86
2023/08/13 08:41:56;;;;;;;4.18;1.98;;;;;;;28.06;61.45;98543.00;5080867;28;20086;-85
2023/08/13 08:44:43;;;;;;;3.10;2.00;;;;;;;27.72;61.47;98531.25;5078443;28;20098;-86
2023/08/13 08:47:29;;;;;;;4.80;1.90;;;;;;;27.19;61.22;98536.69;5080478;28;20447;-82
2023/08/13 08:50:13;;;;;;;2.20;1.80;;;;;;;28.43;59.71;98533.66;5083885;28;20039;-82
2023/08/13 08:52:58;;;;;;;5.82;2.35;;;;;;;28.40;58.99;98527.03;5084484;28;20481;-81
2023/08/13 08:55:42;;;;;;;5.20;1.90;;;;;;;28.03;59.40;98526.69;5082853;28;20082;-81
2023/08/13 08:58:27;;;;;;;3.72;1.90;;;;;;;27.95;58.46;98528.31;5084754;28;20052;-83
2023/08/13 09:01:11;;;;;;;5.13;2.30;;;;;;;27.86;59.15;98530.22;5078993;28;20038;-82
2023/08/13 09:03:57;;;;;;;6.43;2.00;;;;;;;27.80;59.44;98535.81;5082610;28;20058;-81
2023/08/13 09:06:58;;;;;;;4.13;1.98;;;;;;;27.83;59.05;98541.66;5073158;28;20051;-81
2023/08/13 09:09:46;;;;;;;4.22;2.00;;;;;;;27.73;59.80;98537.41;5081826;28;20089;-80
2023/08/13 09:12:38;;;;;;;4.50;2.08;;;;;;;27.25;59.37;98539.19;5079954;28;20520;-80
2023/08/13 09:15:22;;;;;;;8.05;2.55;;;;;;;27.32;59.79;98540.31;5073433;28;20469;-80
2023/08/13 09:18:07;;;;;;;3.50;1.98;;;;;;;27.31;59.85;98543.31;5074758;28;20039;-81
2023/08/13 09:20:51;;;;;;;4.82;2.20;;;;;;;27.26;60.29;98541.59;5063343;28;20051;-80
2023/08/13 09:23:38;;;;;;;3.35;2.00;;;;;;;26.77;61.80;98547.09;5076391;28;20051;-80
2023/08/13 09:26:25;;;;;;;4.07;1.85;;;;;;;26.18;64.85;98553.56;5078524;28;20128;-81
2023/08/13 09:29:09;;;;;;;5.70;2.35;;;;;;;26.35;65.84;98545.56;5075319;28;20728;-81
2023/08/13 09:31:54;;;;;;;2.85;1.98;;;;;;;26.21;66.21;98550.25;5067976;28;20051;-81
2023/08/13 09:34:38;;;;;;;3.80;2.08;;;;;;;26.26;66.88;98552.81;5077668;28;20679;-80
2023/08/13 09:37:25;;;;;;;7.07;2.00;;;;;;;26.36;67.40;98557.13;5079840;28;20097;-81
2023/08/13 09:40:09;;;;;;;5.78;2.08;;;;;;;26.20;69.10;98551.38;5077438;28;20042;-82
2023/08/13 09:42:56;;;;;;;4.22;2.47;;;;;;;26.08;69.48;98544.63;5073545;28;20087;-82
2023/08/13 09:45:43;;;;;;;3.13;2.10;;;;;;;26.15;69.02;98546.09;5078263;28;20109;-82
2023/08/13 09:48:29;;;;;;;6.05;1.92;;;;;;;26.90;68.59;98540.00;5079839;28;20062;-81
2023/08/13 09:51:19;;;;;;;3.58;2.10;;;;;;;27.26;68.26;98538.91;5080465;28;20130;-81
2023/08/13 09:54:13;;;;;;;3.53;2.15;;;;;;;27.36;68.19;98540.47;5081932;28;20470;-82
2023/08/13 09:57:03;;;;;;;3.85;1.83;;;;;;;27.16;68.59;98537.31;5078013;28;20101;-81
2023/08/13 09:59:48;;;;;;;5.88;2.00;;;;;;;26.84;67.23;98535.84;5074936;28;20516;-83
2023/08/13 10:02:38;;;;;;;4.38;2.17;;;;;;;27.00;66.58;98538.91;5084815;28;20035;-82
2023/08/13 10:05:23;;;;;;;3.35;1.98;;;;;;;27.58;66.79;98536.81;5084959;28;20046;-82
2023/08/13 10:08:07;;;;;;;3.47;2.15;;;;;;;28.25;65.30;98538.38;5081563;28;20128;-81
2023/08/13 10:10:53;;;;;;;4.65;2.60;;;;;;;28.30;66.52;98535.47;5078295;28;20134;-82
2023/08/13 10:13:39;;;;;;;3.60;2.10;;;;;;;28.99;65.51;98530.78;5080476;28;20563;-81
2023/08/13 10:16:24;;;;;;;5.97;2.22;;;;;;;28.93;65.60;98532.88;5076329;28;20087;-81
2023/08/13 10:19:08;;;;;;;2.60;1.90;;;;;;;28.33;65.18;98530.22;5084843;28;20047;-82
2023/08/13 10:21:56;;;;;;;4.68;2.28;;;;;;;28.28;65.18;98530.38;5079139;28;20031;-82
2023/08/13 10:24:42;;;;;;;4.15;2.13;;;;;;;28.02;66.14;98528.59;5086505;28;20055;-85
2023/08/13 10:27:28;;;;;;;1.95;1.77;;;;;;;28.75;65.65;98531.41;5085468;28;20043;-84
2023/08/13 10:30:13;;;;;;;2.58;1.92;;;;;;;29.67;62.99;98512.63;5083410;28;20132;-84
2023/08/13 10:32:57;;;;;;;2.75;1.80;;;;;;;29.34;61.91;98519.63;5083191;28;20040;-83
2023/08/13 10:35:42;;;;;;;2.58;1.60;;;;;;;29.54;60.96;98511.06;5083170;28;20390;-83
2023/08/13 10:38:33;;;;;;;1.75;1.60;;;;;;;29.71;60.87;98516.28;5079302;28;20504;-84
2023/08/13 10:41:32;;;;;;;1.73;1.63;;;;;;;29.66;61.15;98508.34;5088059;28;20112;-84
2023/08/13 10:44:30;;;;;;;2.63;1.50;;;;;;;29.30;60.39;98507.13;5081035;28;20039;-84
2023/08/13 10:47:14;;;;;;;1.50;1.40;;;;;;;29.02;59.42;98507.69;5086453;28;20128;-83
2023/08/13 10:49:58;;;;;;;1.85;1.45;;;;;;;28.71;60.30;98515.06;5081121;28;20089;-83
2023/08/13 10:52:46;;;;;;;1.98;1.60;;;;;;;28.17;60.67;98511.09;5084562;28;20500;-83
2023/08/13 10:55:55;;;;;;;1.38;1.30;;;;;;;29.12;59.00;98510.00;5081348;28;20047;-83
2023/08/13 10:58:40;;;;;;;3.72;1.50;;;;;;;28.94;58.44;98506.66;5080959;28;20043;-82
2023/08/13 11:01:24;;;;;;;2.17;1.42;;;;;;;28.78;58.44;98511.84;5090081;28;20043;-83
2023/08/13 11:04:09;;;;;;;1.20;1.10;;;;;;;28.77;59.48;98507.56;5080976;28;20571;-84
2023/08/13 11:06:53;;;;;;;1.80;1.45;;;;;;;29.47;58.60;98498.09;5082506;28;20398;-83
2023/08/13 11:09:38;;;;;;;1.40;1.30;;;;;;;29.49;58.05;98503.94;5077514;28;20055;-84
2023/08/13 11:12:22;;;;;;;1.70;1.60;;;;;;;29.96;56.49;98510.88;5078718;28;20051;-80
2023/08/13 11:15:07;;;;;;;3.22;1.80;;;;;;;30.11;56.81;98500.56;5077301;28;20567;-81
2023/08/13 11:17:51;;;;;;;1.75;1.30;;;;;;;29.85;56.91;98493.50;5078008;28;20051;-81
2023/08/13 11:20:35;;;;;;;2.20;1.25;;;;;;;29.27;57.70;98500.47;5084867;28;20047;-80
2023/08/13 11:23:21;;;;;;;2.28;1.35;;;;;;;28.58;59.38;98495.28;5078541;28;20101;-80
2023/08/13 11:26:05;;;;;;;2.15;1.50;;;;;;;28.19;60.97;98499.97;5079367;28;20113;-80
2023/08/13 11:28:50;;;;;;;3.15;1.40;;;;;;;27.40;63.92;98521.75;5077774;28;20054;-80
2023/08/13 11:31:35;;;;;;;1.48;1.20;;;;;;;29.73;71.86;98532.97;5078394;28;20093;-80
2023/08/13 11:34:19;;;;;;;1.13;1.08;;;;;;;29.26;70.79;98533.22;5081017;28;20444;-81
2023/08/13 11:37:04;;;;;;;2.30;1.30;;;;;;;28.06;72.25;98537.59;5075301;28;20051;-80
2023/08/13 11:39:48;;;;;;;2.22;1.27;;;;;;;28.15;72.80;98526.78;5078070;28;20556;-81
2023/08/13 11:42:33;;;;;;;2.65;1.00;;;;;;;27.14;73.42;98531.47;5080301;28;20126;-81
2023/08/13 11:45:17;;;;;;;3.65;1.10;;;;;;;27.62;71.24;98528.88;5079808;28;20038;-81
2023/08/13 11:48:14;;;;;;;1.15;1.00;;;;;;;26.97;70.56;98534.16;5079245;28;20221;-81
2023/08/13 11:51:14;;;;;;;2.08;1.10;;;;;;;27.98;69.11;98530.34;5087867;28;20047;-80
2023/08/13 11:54:08;;;;;;;1.55;1.00;;;;;;;28.31;68.87;98524.38;5079043;28;20039;-81
2023/08/13 11:56:54;;;;;;;2.13;1.08;;;;;;;28.60;66.25;98541.66;5076257;28;20059;-80
2023/08/13 11:59:42;;;;;;;1.20;1.10;;;;;;;28.48;67.40;98536.16;5079207;28;20510;-80
2023/08/13 12:02:26;;;;;;;3.63;1.40;;;;;;;28.57;64.23;98534.22;5083700;28;20469;-80
2023/08/13 12:05:13;;;;;;;2.70;1.40;;;;;;;28.83;63.03;98530.56;5079638;28;20039;-79
2023/08/13 12:07:58;;;;;;;3.05;1.08;;;;;;;29.68;61.94;98533.19;5081258;28;20543;-80
2023/08/13 12:10:42;;;;;;;2.30;1.35;;;;;;;29.55;59.72;98535.03;5080279;28;20039;-79
2023/08/13 12:13:28;;;;;;;2.17;1.33;;;;;;;29.64;58.48;98529.53;5078817;28;20424;-80
2023/08/13 12:16:12;;;;;;;2.85;1.30;;;;;;;29.54;57.59;98535.38;5081632;28;20555;-78
2023/08/13 12:18:57;;;;;;;2.00;1.42;;;;;;;29.82;56.49;98538.28;5076786;28;20153;-80
2023/08/13 12:21:41;;;;;;;1.63;1.30;;;;;;;30.75;56.31;98545.03;5080512;28;20055;-80
2023/08/13 12:24:25;;;;;;;2.25;1.30;;;;;;;31.20;55.31;98545.97;5082207;28;20051;-80
2023/08/13 12:27:13;;;;;;;4.38;1.58;;;;;;;30.74;53.85;98542.69;5080755;28;20108;-81
2023/08/13 12:29:57;;;;;;;2.35;1.60;;;;;;;30.69;54.80;98548.34;5078831;28;20069;-80
2023/08/13 12:32:41;;;;;;;4.32;1.88;;;;;;;30.78;53.10;98549.00;5079695;28;20043;-81
2023/08/13 12:35:25;;;;;;;4.38;1.65;;;;;;;31.36;52.05;98545.22;5083312;28;20127;-80
2023/08/13 12:38:09;;;;;;;4.65;1.75;;;;;;;31.11;51.38;98550.72;5072829;28;20090;-79
2023/08/13 12:40:53;;;;;;;3.08;1.60;;;;;;;31.52;51.33;98547.94;5076481;28;20047;-81
2023/08/13 12:43:38;;;;;;;3.92;1.52;;;;;;;30.61;50.08;98566.28;5075775;28;20048;-82
2023/08/13 12:46:22;;;;;;;5.40;1.38;;;;;;;30.60;50.57;98564.69;5075466;28;20117;-81
2023/08/13 12:49:07;;;;;;;5.05;1.73;;;;;;;30.59;51.54;98561.19;5077112;28;20501;-81
2023/08/13 12:51:51;;;;;;;2.72;1.50;;;;;;;31.42;51.76;98568.22;5080530;28;20044;-81
2023/08/13 12:54:36;;;;;;;4.65;1.45;;;;;;;31.72;51.25;98559.72;5074866;28;20051;-82
2023/08/13 12:57:20;;;;;;;4.30;1.83;;;;;;;31.92;49.87;98565.28;5083334;28;20440;-80
2023/08/13 13:00:05;;;;;;;1.98;1.58;;;;;;;31.47;48.26;98553.63;5076870;28;20074;-82